createdAt,value
2017-12-11T00:02:10.543Z,94479.19
2017-12-11T00:04:38.054Z,94473.52
2017-12-11T00:07:05.559Z,94482.44
2017-12-11T00:09:33.071Z,94465.69
2017-12-11T00:12:00.610Z,94464.22
2017-12-11T00:14:28.128Z,94450.28
2017-12-11T00:16:55.641Z,94441.27
2017-12-11T00:19:23.273Z,94445.57
2017-12-11T00:21:50.786Z,94429.43
2017-12-11T00:24:18.302Z,94423.06
2017-12-11T00:26:46.046Z,94416.78
2017-12-11T00:29:13.546Z,94406.84
2017-12-11T00:31:41.063Z,94407.37
2017-12-11T00:34:08.756Z,94403.59
2017-12-11T00:36:36.263Z,94393.02
2017-12-11T00:39:03.770Z,94399.67
2017-12-11T00:41:31.683Z,94391.64
2017-12-11T00:43:59.194Z,94388.81
2017-12-11T00:46:26.703Z,94392.36
2017-12-11T00:48:54.490Z,94388.16
2017-12-11T00:51:21.997Z,94388.53
2017-12-11T00:53:49.509Z,94387.34
2017-12-11T00:56:17.268Z,94404.66
2017-12-11T00:58:44.828Z,94403.31
2017-12-11T01:01:12.334Z,94407.53
2017-12-11T01:03:40.765Z,94399.83
2017-12-11T01:06:08.270Z,94412.56
2017-12-11T01:08:35.781Z,94409.13
2017-12-11T01:11:03.442Z,94421.75
2017-12-11T01:13:30.945Z,94433.05
2017-12-11T01:15:58.458Z,94432.95
2017-12-11T01:18:26.001Z,94427.80
2017-12-11T01:20:53.508Z,94437.54
2017-12-11T01:23:21.912Z,94437.21
2017-12-11T01:25:49.693Z,94448.33
2017-12-11T01:28:17.202Z,94441.80
2017-12-11T01:30:44.705Z,94435.31
2017-12-11T01:33:12.585Z,94444.41
2017-12-11T01:35:40.095Z,94453.19
2017-12-11T01:38:07.608Z,94457.77
2017-12-11T01:40:35.146Z,94451.30
2017-12-11T01:43:02.654Z,94442.56
2017-12-11T01:45:30.160Z,94425.55
2017-12-11T01:47:57.730Z,94430.89
2017-12-11T01:50:25.238Z,94444.88
2017-12-11T01:52:53.278Z,94455.41
2017-12-11T01:55:20.838Z,94441.33
2017-12-11T01:57:48.338Z,94433.34
2017-12-11T02:00:15.853Z,94429.00
2017-12-11T02:02:43.617Z,94423.03
2017-12-11T02:05:11.117Z,94415.98
2017-12-11T02:07:38.625Z,94420.06
2017-12-11T02:10:06.205Z,94417.22
2017-12-11T02:12:33.712Z,94421.13
2017-12-11T02:15:01.218Z,94431.52
2017-12-11T02:17:28.766Z,94437.13
2017-12-11T02:19:56.272Z,94437.98
2017-12-11T02:22:23.782Z,94446.81
2017-12-11T02:24:51.482Z,94449.08
2017-12-11T02:27:19.003Z,94456.56
2017-12-11T02:29:46.510Z,94453.30
2017-12-11T02:32:14.054Z,94461.34
2017-12-11T02:34:41.578Z,94460.30
2017-12-11T02:37:09.137Z,94455.62
2017-12-11T02:39:37.010Z,94454.41
2017-12-11T02:42:04.515Z,94464.39
2017-12-11T02:44:32.025Z,94462.75
2017-12-11T02:46:59.587Z,94454.30
2017-12-11T02:49:27.140Z,94441.78
2017-12-11T02:51:54.702Z,94435.39
2017-12-11T02:54:22.266Z,94440.92
2017-12-11T02:56:49.778Z,94438.78
2017-12-11T02:59:17.282Z,94444.48
2017-12-11T03:01:45.240Z,94438.60
2017-12-11T03:04:12.902Z,94436.09
2017-12-11T03:06:40.461Z,94431.27
2017-12-11T03:09:08.202Z,94429.56
2017-12-11T03:11:35.702Z,94438.20
2017-12-11T03:14:03.241Z,94437.55
2017-12-11T03:16:30.795Z,94428.16
2017-12-11T03:18:58.302Z,94422.30
2017-12-11T03:21:26.328Z,94428.91
2017-12-11T03:23:54.064Z,94428.30
2017-12-11T03:26:21.566Z,94426.64
2017-12-11T03:28:49.111Z,94431.36
2017-12-11T03:31:16.873Z,94421.02
2017-12-11T03:33:44.424Z,94419.95
2017-12-11T03:36:11.990Z,94412.50
2017-12-11T03:38:39.730Z,94401.66
2017-12-11T03:41:07.246Z,94396.48
2017-12-11T03:43:34.769Z,94387.34
2017-12-11T03:46:02.635Z,94384.33
2017-12-11T03:48:30.196Z,94378.96
2017-12-11T03:50:57.700Z,94367.48
2017-12-11T03:53:25.494Z,94374.14
2017-12-11T03:55:53.001Z,94377.98
2017-12-11T03:58:20.502Z,94370.01
2017-12-11T04:00:48.478Z,94366.30
2017-12-11T04:03:15.977Z,94362.89
2017-12-11T04:05:43.517Z,94363.06
2017-12-11T04:08:11.294Z,94353.84
2017-12-11T04:10:38.947Z,94340.69
2017-12-11T04:13:06.457Z,94339.78
2017-12-11T04:15:34.078Z,94338.16
2017-12-11T04:18:01.594Z,94339.23
2017-12-11T04:20:29.094Z,94329.73
2017-12-11T04:22:56.641Z,94328.85
2017-12-11T04:25:24.213Z,94322.91
2017-12-11T04:27:51.721Z,94324.69
2017-12-11T04:30:19.622Z,94331.77
2017-12-11T04:32:47.123Z,94330.36
2017-12-11T04:35:14.639Z,94323.14
2017-12-11T04:37:42.628Z,94314.98
2017-12-11T04:40:10.164Z,94320.86
2017-12-11T04:42:37.735Z,94312.02
2017-12-11T04:45:05.589Z,94314.65
2017-12-11T04:47:33.093Z,94311.05
2017-12-11T04:50:00.616Z,94308.77
2017-12-11T04:52:28.246Z,94304.92
2017-12-11T04:54:55.775Z,94299.20
2017-12-11T04:57:23.284Z,94295.17
2017-12-11T04:59:50.845Z,94296.84
2017-12-11T05:02:18.362Z,94288.31
2017-12-11T05:04:45.874Z,94273.83
2017-12-11T05:07:13.423Z,94274.44
2017-12-11T05:09:40.979Z,94276.37
2017-12-11T05:12:08.485Z,94276.34
2017-12-11T05:14:36.196Z,94269.00
2017-12-11T05:17:03.703Z,94267.11
2017-12-11T05:19:31.234Z,94271.84
2017-12-11T05:21:58.770Z,94273.52
2017-12-11T05:24:26.283Z,94269.14
2017-12-11T05:26:53.790Z,94259.66
2017-12-11T05:29:21.448Z,94255.45
2017-12-11T05:31:49.003Z,94246.77
2017-12-11T05:34:16.594Z,94242.89
2017-12-11T05:36:47.333Z,94236.03
2017-12-11T05:39:14.838Z,94240.22
2017-12-11T05:41:42.338Z,94243.77
2017-12-11T05:44:09.894Z,94235.34
2017-12-11T05:46:37.434Z,94242.36
2017-12-11T05:49:04.937Z,94228.30
2017-12-11T05:51:32.657Z,94218.05
2017-12-11T05:54:00.158Z,94227.17
2017-12-11T05:56:27.673Z,94215.47
2017-12-11T05:58:55.546Z,94225.05
2017-12-11T06:01:23.097Z,94231.53
2017-12-11T06:03:50.660Z,94232.23
2017-12-11T06:06:18.398Z,94223.25
2017-12-11T06:08:45.911Z,94216.08
2017-12-11T06:11:13.437Z,94215.84
2017-12-11T06:13:41.303Z,94203.36
2017-12-11T06:16:08.806Z,94202.52
2017-12-11T06:18:36.318Z,94193.91
2017-12-11T06:21:04.081Z,94200.73
2017-12-11T06:23:31.587Z,94187.84
2017-12-11T06:25:59.097Z,94172.20
2017-12-11T06:28:26.656Z,94174.96
2017-12-11T06:30:54.162Z,94173.27
2017-12-11T06:35:48.515Z,94167.20
2017-12-11T06:38:16.017Z,94162.99
2017-12-11T06:40:43.636Z,94151.55
2017-12-11T06:43:11.397Z,94151.47
2017-12-11T06:45:38.905Z,94147.87
2017-12-11T06:48:06.430Z,94130.56
2017-12-11T06:50:33.982Z,94123.36
2017-12-11T06:53:01.534Z,94128.97
2017-12-11T06:55:29.091Z,94120.64
2017-12-11T06:57:56.638Z,94123.59
2017-12-11T07:00:24.142Z,94115.97
2017-12-11T07:02:51.665Z,94124.59
2017-12-11T07:05:19.224Z,94130.41
2017-12-11T07:07:46.726Z,94115.62
2017-12-11T07:10:14.339Z,94118.67
2017-12-11T07:12:42.105Z,94108.19
2017-12-11T07:15:09.638Z,94115.84
2017-12-11T07:17:37.146Z,94106.51
2017-12-11T07:20:04.702Z,94112.28
2017-12-11T07:22:32.240Z,94116.78
2017-12-11T07:24:59.741Z,94136.96
2017-12-11T07:27:27.461Z,94137.81
2017-12-11T07:29:54.970Z,94148.71
2017-12-11T07:32:22.482Z,94145.45
2017-12-11T07:34:50.218Z,94158.24
2017-12-11T07:37:17.726Z,94159.55
2017-12-11T07:39:45.258Z,94162.53
2017-12-11T07:42:12.938Z,94158.95
2017-12-11T07:44:40.477Z,94167.95
2017-12-11T07:47:09.039Z,94176.89
2017-12-11T07:49:37.186Z,94165.46
2017-12-11T07:52:04.761Z,94150.75
2017-12-11T07:54:32.558Z,94149.66
2017-12-11T07:57:00.671Z,94158.16
2017-12-11T07:59:28.291Z,94164.70
2017-12-11T08:01:56.883Z,94161.64
2017-12-11T08:04:25.529Z,94172.45
2017-12-11T08:06:53.190Z,94165.73
2017-12-11T08:09:21.026Z,94167.80
2017-12-11T08:11:48.733Z,94168.53
2017-12-11T08:14:16.621Z,94163.03
2017-12-11T08:16:45.078Z,94157.86
2017-12-11T08:19:12.730Z,94134.38
2017-12-11T08:21:41.039Z,94124.86
2017-12-11T08:24:08.874Z,94110.14
2017-12-11T08:26:36.805Z,94105.05
2017-12-11T08:29:04.326Z,94097.96
2017-12-11T08:31:32.599Z,94098.83
2017-12-11T08:34:03.948Z,94093.20
2017-12-11T08:36:31.563Z,94096.34
2017-12-11T08:39:00.294Z,94093.39
2017-12-11T08:41:28.183Z,94088.75
2017-12-11T08:43:56.924Z,94092.17
2017-12-11T08:46:26.730Z,94091.39
2017-12-11T08:48:55.105Z,94089.75
2017-12-11T08:51:24.274Z,94075.30
2017-12-11T08:53:52.610Z,94062.45
2017-12-11T08:56:20.170Z,94076.73
2017-12-11T08:58:48.550Z,94065.94
2017-12-11T09:01:16.242Z,94076.05
2017-12-11T09:03:43.874Z,94055.11
2017-12-11T09:06:11.438Z,94064.84
2017-12-11T09:08:39.893Z,94058.06
2017-12-11T09:11:07.470Z,94054.91
2017-12-11T09:13:35.645Z,94053.59
2017-12-11T09:16:03.153Z,94057.42
2017-12-11T09:18:30.731Z,94041.52
2017-12-11T09:20:58.243Z,94041.39
2017-12-11T09:23:25.780Z,94024.87
2017-12-11T09:25:53.346Z,94020.50
2017-12-11T09:28:21.010Z,94027.80
2017-12-11T09:30:48.560Z,93998.95
2017-12-11T09:33:16.523Z,94001.28
2017-12-11T09:35:44.031Z,93996.05
2017-12-11T09:38:11.646Z,93987.91
2017-12-11T09:40:39.434Z,93981.97
2017-12-11T09:43:08.197Z,93982.35
2017-12-11T09:45:36.269Z,93971.37
2017-12-11T09:48:04.707Z,93967.15
2017-12-11T09:50:32.291Z,93965.49
2017-12-11T09:53:01.670Z,93963.53
2017-12-11T09:55:29.578Z,93958.63
2017-12-11T09:57:57.358Z,93953.59
2017-12-11T10:00:25.002Z,93957.22
2017-12-11T10:02:53.279Z,93964.33
2017-12-11T10:05:20.842Z,93975.11
2017-12-11T10:07:48.447Z,93964.17
2017-12-11T10:10:16.775Z,93961.25
2017-12-11T10:12:46.282Z,93948.09
2017-12-11T10:15:13.903Z,93941.87
2017-12-11T10:17:41.995Z,93934.45
2017-12-11T10:20:10.392Z,93939.91
2017-12-11T10:22:38.204Z,93939.21
2017-12-11T10:25:07.256Z,93941.84
2017-12-11T10:27:35.949Z,93936.73
2017-12-11T10:30:04.860Z,93942.63
2017-12-11T10:32:32.592Z,93956.45
2017-12-11T10:35:02.129Z,93959.30
2017-12-11T10:37:32.464Z,93944.98
2017-12-11T10:40:00.945Z,93944.80
2017-12-11T10:42:28.878Z,93929.55
2017-12-11T10:44:57.553Z,93931.14
2017-12-11T10:47:25.322Z,93921.05
2017-12-11T10:49:52.877Z,93913.09
2017-12-11T10:52:20.581Z,93910.27
2017-12-11T10:54:48.098Z,93902.17
2017-12-11T10:57:15.606Z,93911.44
2017-12-11T10:59:43.402Z,93918.75
2017-12-11T11:02:10.906Z,93931.03
2017-12-11T11:04:38.438Z,93934.70
2017-12-11T11:07:06.282Z,93920.88
2017-12-11T11:09:33.786Z,93942.95
2017-12-11T11:12:02.036Z,93936.25
2017-12-11T11:14:29.799Z,93899.19
2017-12-11T11:16:57.360Z,93884.78
2017-12-11T11:19:24.874Z,93866.35
2017-12-11T11:21:52.579Z,93847.71
2017-12-11T11:24:20.139Z,93841.51
2017-12-11T11:26:47.642Z,93836.30
2017-12-11T11:29:15.563Z,93855.84
2017-12-11T11:31:43.122Z,93845.73
2017-12-11T11:34:10.630Z,93840.16
2017-12-11T11:36:38.426Z,93834.87
2017-12-11T11:39:05.935Z,93855.11
2017-12-11T11:41:33.462Z,93848.14
2017-12-11T11:44:01.230Z,93858.27
2017-12-11T11:46:28.889Z,93846.77
2017-12-11T11:48:57.617Z,93846.41
2017-12-11T11:51:27.079Z,93841.44
2017-12-11T11:53:54.636Z,93854.13
2017-12-11T11:56:22.503Z,93865.37
2017-12-11T11:58:50.548Z,93857.06
2017-12-11T12:01:18.133Z,93874.99
2017-12-11T12:03:46.878Z,93870.33
2017-12-11T12:06:14.583Z,93867.62
2017-12-11T12:08:42.245Z,93879.13
2017-12-11T12:11:10.521Z,93873.03
2017-12-11T12:13:38.610Z,93865.64
2017-12-11T12:16:06.238Z,93882.64
2017-12-11T12:18:33.920Z,93880.13
2017-12-11T12:21:01.596Z,93910.09
2017-12-11T12:23:29.562Z,93927.91
2017-12-11T12:25:57.308Z,93947.33
2017-12-11T12:28:24.971Z,93941.22
2017-12-11T12:30:52.656Z,93933.77
2017-12-11T12:33:20.193Z,93928.84
2017-12-11T12:35:48.380Z,93925.66
2017-12-11T12:38:16.231Z,93921.88
2017-12-11T12:40:43.830Z,93936.03
2017-12-11T12:43:12.514Z,93932.42
2017-12-11T12:45:40.042Z,93923.17
2017-12-11T12:48:07.593Z,93925.78
2017-12-11T12:50:35.791Z,93935.32
2017-12-11T12:53:03.566Z,93940.72
2017-12-11T12:55:31.157Z,93949.98
2017-12-11T12:57:59.775Z,93949.22
2017-12-11T13:00:28.521Z,93939.03
2017-12-11T13:02:56.840Z,93939.50
2017-12-11T13:05:25.526Z,93950.45
2017-12-11T13:07:53.086Z,93940.81
2017-12-11T13:10:21.033Z,93960.25
2017-12-11T13:12:49.723Z,93953.59
2017-12-11T13:15:17.238Z,93956.52
2017-12-11T13:17:45.960Z,93963.52
2017-12-11T13:20:14.317Z,93964.11
2017-12-11T13:22:43.007Z,93971.67
2017-12-11T13:25:10.596Z,93969.67
2017-12-11T13:27:43.491Z,93956.66
2017-12-11T13:30:16.576Z,93968.94
2017-12-11T13:32:44.550Z,93982.92
2017-12-11T13:35:12.100Z,93982.05
2017-12-11T13:37:41.283Z,93993.37
2017-12-11T13:40:09.273Z,93988.44
2017-12-11T13:42:37.671Z,93984.80
2017-12-11T13:45:06.646Z,93994.95
2017-12-11T13:47:35.331Z,93999.82
2017-12-11T13:50:03.746Z,93999.82
2017-12-11T13:52:36.101Z,93999.55
2017-12-11T13:55:03.743Z,94007.62
2017-12-11T13:57:32.860Z,94000.95
2017-12-11T14:00:02.940Z,94011.37
2017-12-11T14:02:30.762Z,94026.34
2017-12-11T14:04:58.393Z,94024.67
2017-12-11T14:07:26.070Z,94033.31
2017-12-11T14:09:53.713Z,94049.10
2017-12-11T14:12:21.486Z,94054.83
2017-12-11T14:14:49.276Z,94066.66
2017-12-11T14:17:16.844Z,94071.00
2017-12-11T14:19:44.762Z,94084.66
2017-12-11T14:22:13.040Z,94104.90
2017-12-11T14:24:40.832Z,94117.66
2017-12-11T14:27:08.977Z,94122.52
2017-12-11T14:29:36.847Z,94129.23
2017-12-11T14:32:04.685Z,94147.23
2017-12-11T14:34:33.202Z,94151.40
2017-12-11T14:37:00.849Z,94161.49
2017-12-11T14:39:28.519Z,94169.73
2017-12-11T14:41:56.042Z,94182.76
2017-12-11T14:44:24.519Z,94185.80
2017-12-11T14:46:52.212Z,94179.13
2017-12-11T14:49:20.028Z,94185.91
2017-12-11T14:51:47.868Z,94193.52
2017-12-11T14:54:16.221Z,94199.27
2017-12-11T14:56:43.984Z,94196.90
2017-12-11T14:59:12.467Z,94211.86
2017-12-11T15:01:41.145Z,94212.96
2017-12-11T15:04:08.689Z,94209.18
2017-12-11T15:06:36.536Z,94212.73
2017-12-11T15:09:04.414Z,94220.16
2017-12-11T15:11:33.034Z,94218.22
2017-12-11T15:14:01.458Z,94213.73
2017-12-11T15:16:29.068Z,94209.58
2017-12-11T15:18:56.730Z,94213.53
2017-12-11T15:21:25.240Z,94228.83
2017-12-11T15:23:53.588Z,94230.89
2017-12-11T15:26:21.205Z,94231.71
2017-12-11T15:28:49.525Z,94223.83
2017-12-11T15:31:17.939Z,94230.16
2017-12-11T15:33:46.794Z,94232.78
2017-12-11T15:36:14.660Z,94244.59
2017-12-11T15:38:42.429Z,94240.59
2017-12-11T15:41:10.822Z,94246.33
2017-12-11T15:43:38.948Z,94237.42
2017-12-11T15:46:06.537Z,94250.55
2017-12-11T15:48:34.144Z,94242.12
2017-12-11T15:51:02.882Z,94243.98
2017-12-11T15:53:30.441Z,94243.03
2017-12-11T15:55:57.950Z,94245.17
2017-12-11T15:58:25.506Z,94239.22
2017-12-11T16:00:53.016Z,94234.05
2017-12-11T16:03:20.518Z,94243.94
2017-12-11T16:05:48.074Z,94248.89
2017-12-11T16:08:15.591Z,94243.78
2017-12-11T16:10:43.218Z,94241.45
2017-12-11T16:13:11.119Z,94252.03
2017-12-11T16:15:38.626Z,94250.80
2017-12-11T16:18:06.163Z,94264.77
2017-12-11T16:20:35.468Z,94256.77
2017-12-11T16:23:03.096Z,94259.98
2017-12-11T16:25:30.711Z,94263.11
2017-12-11T16:27:58.806Z,94265.41
2017-12-11T16:30:26.311Z,94263.03
2017-12-11T16:32:54.971Z,94263.77
2017-12-11T16:35:22.761Z,94259.53
2017-12-11T16:37:50.396Z,94259.43
2017-12-11T16:40:18.101Z,94262.23
2017-12-11T16:42:45.925Z,94264.92
2017-12-11T16:45:13.544Z,94263.91
2017-12-11T16:47:41.146Z,94261.84
2017-12-11T16:50:09.027Z,94253.33
2017-12-11T16:52:37.341Z,94252.52
2017-12-11T16:55:05.984Z,94245.06
2017-12-11T16:57:33.974Z,94242.62
2017-12-11T17:00:03.987Z,94246.64
2017-12-11T17:02:31.538Z,94232.43
2017-12-11T17:04:59.692Z,94251.05
2017-12-11T17:07:27.401Z,94263.09
2017-12-11T17:09:54.921Z,94260.56
2017-12-11T17:12:22.676Z,94271.48
2017-12-11T17:14:50.251Z,94270.20
2017-12-11T17:17:17.758Z,94272.06
2017-12-11T17:19:45.524Z,94272.38
2017-12-11T17:22:13.076Z,94283.59
2017-12-11T17:24:40.622Z,94280.98
2017-12-11T17:27:08.314Z,94281.84
2017-12-11T17:29:36.130Z,94290.20
2017-12-11T17:32:03.970Z,94293.45
2017-12-11T17:34:31.938Z,94299.28
2017-12-11T17:36:59.450Z,94307.30
2017-12-11T17:39:27.174Z,94315.52
2017-12-11T17:41:55.230Z,94310.13
2017-12-11T17:44:23.052Z,94322.03
2017-12-11T17:46:51.190Z,94304.41
2017-12-11T17:49:19.386Z,94297.37
2017-12-11T17:51:47.234Z,94308.85
2017-12-11T17:54:15.331Z,94321.77
2017-12-11T17:56:44.491Z,94321.65
2017-12-11T17:59:12.444Z,94336.35
2017-12-11T18:01:40.822Z,94338.83
2017-12-11T18:04:08.899Z,94340.21
2017-12-11T18:06:36.708Z,94342.05
2017-12-11T18:09:05.650Z,94346.38
2017-12-11T18:11:33.824Z,94347.02
2017-12-11T18:14:01.602Z,94344.63
2017-12-11T18:16:29.454Z,94348.27
2017-12-11T18:18:57.151Z,94367.98
2017-12-11T18:21:26.006Z,94373.88
2017-12-11T18:23:54.639Z,94364.79
2017-12-11T18:26:22.670Z,94365.30
2017-12-11T18:28:50.834Z,94365.90
2017-12-11T18:31:18.611Z,94367.17
2017-12-11T18:33:46.799Z,94373.50
2017-12-11T18:36:15.457Z,94382.58
2017-12-11T18:38:44.255Z,94352.94
2017-12-11T18:41:12.566Z,94358.03
2017-12-11T18:43:41.560Z,94362.31
2017-12-11T18:46:09.678Z,94362.50
2017-12-11T18:48:39.194Z,94356.42
2017-12-11T18:51:09.167Z,94345.20
2017-12-11T18:53:37.190Z,94356.24
2017-12-11T18:56:05.863Z,94347.69
2017-12-11T18:58:33.834Z,94332.92
2017-12-11T19:01:02.788Z,94333.42
2017-12-11T19:03:31.523Z,94326.50
2017-12-11T19:05:59.711Z,94332.75
2017-12-11T19:08:27.653Z,94333.20
2017-12-11T19:10:55.868Z,94337.37
2017-12-11T19:13:23.693Z,94342.11
2017-12-11T19:15:51.661Z,94341.52
2017-12-11T19:18:19.527Z,94336.84
2017-12-11T19:20:47.396Z,94332.97
2017-12-11T19:23:15.352Z,94331.25
2017-12-11T19:25:43.014Z,94332.97
2017-12-11T19:28:10.692Z,94354.97
2017-12-11T19:30:38.774Z,94370.71
2017-12-11T19:33:06.521Z,94373.30
2017-12-11T19:35:34.186Z,94378.77
2017-12-11T19:38:02.018Z,94376.50
2017-12-11T19:40:30.122Z,94376.48
